createdAt,value
2022-11-18T00:01:32.521Z,14.60
2022-11-18T00:04:00.816Z,15.68
2022-11-18T00:06:32.588Z,13.73
2022-11-18T00:09:01.726Z,12.45
2022-11-18T00:14:20.733Z,7.03
2022-11-18T00:16:51.325Z,8.68
2022-11-18T00:19:20.485Z,10.27
2022-11-18T00:21:49.191Z,6.95
2022-11-18T00:24:17.452Z,7.25
2022-11-18T00:26:45.960Z,8.73
2022-11-18T00:29:14.771Z,9.40
2022-11-18T00:31:45.278Z,9.07
2022-11-18T00:34:15.331Z,10.13
2022-11-18T00:36:44.870Z,8.23
2022-11-18T00:39:14.509Z,8.68
2022-11-18T00:42:00.659Z,7.22
2022-11-18T00:44:29.342Z,10.52
2022-11-18T00:46:59.544Z,11.43
2022-11-18T00:49:27.583Z,11.25
2022-11-18T00:51:56.081Z,9.70
2022-11-18T00:54:24.207Z,13.68
2022-11-18T00:56:52.568Z,10.35
2022-11-18T00:59:21.032Z,6.43
2022-11-18T01:01:50.021Z,4.35
2022-11-18T01:04:19.698Z,2.85
2022-11-18T01:06:48.099Z,3.13
2022-11-18T01:09:16.664Z,3.28
2022-11-18T01:12:02.455Z,3.35
2022-11-18T01:14:30.963Z,3.60
2022-11-18T01:16:59.482Z,2.80
2022-11-18T01:19:29.002Z,2.97
2022-11-18T01:22:03.127Z,3.35
2022-11-18T01:24:32.108Z,3.45
2022-11-18T01:27:01.568Z,3.83
2022-11-18T01:29:30.001Z,4.35
2022-11-18T01:34:47.918Z,5.30
2022-11-18T01:37:16.321Z,3.95
2022-11-18T01:39:44.427Z,5.82
2022-11-18T01:42:16.053Z,5.28
2022-11-18T01:45:05.223Z,3.85
2022-11-18T01:47:37.192Z,5.40
2022-11-18T01:50:09.041Z,3.80
2022-11-18T01:52:39.094Z,4.35
2022-11-18T01:55:14.638Z,5.32
2022-11-18T01:57:43.494Z,4.00
2022-11-18T02:00:13.334Z,6.88
2022-11-18T02:02:41.691Z,5.03
2022-11-18T02:05:14.177Z,4.10
2022-11-18T02:07:44.626Z,5.13
2022-11-18T02:10:22.374Z,4.60
2022-11-18T02:12:51.912Z,6.70
2022-11-18T02:15:26.719Z,5.55
2022-11-18T02:18:03.470Z,4.95
2022-11-18T02:20:37.620Z,4.97
2022-11-18T02:23:54.107Z,4.10
2022-11-18T02:26:55.222Z,4.50
2022-11-18T02:29:28.655Z,5.35
2022-11-18T02:32:01.267Z,5.00
2022-11-18T02:34:41.379Z,5.55
2022-11-18T02:37:18.784Z,7.22
2022-11-18T02:39:56.696Z,5.68
2022-11-18T02:42:27.709Z,7.20
2022-11-18T02:45:01.753Z,3.85
2022-11-18T02:47:32.902Z,4.88
2022-11-18T02:50:05.004Z,7.22
2022-11-18T02:52:34.792Z,5.47
2022-11-18T02:55:05.416Z,6.55
2022-11-18T02:57:35.518Z,7.65
2022-11-18T03:00:06.541Z,7.18
2022-11-18T03:02:42.920Z,6.28
2022-11-18T03:05:18.295Z,9.60
2022-11-18T03:07:51.714Z,5.43
2022-11-18T03:10:24.747Z,6.72
2022-11-18T03:13:03.788Z,6.18
2022-11-18T03:15:38.332Z,6.22
2022-11-18T03:18:17.831Z,5.85
2022-11-18T03:20:51.293Z,6.75
2022-11-18T03:23:28.753Z,6.82
2022-11-18T03:26:00.843Z,7.72
2022-11-18T03:28:35.846Z,6.75
2022-11-18T03:31:36.814Z,5.55
2022-11-18T03:34:11.065Z,6.55
2022-11-18T03:36:43.054Z,5.85
2022-11-18T03:39:14.113Z,6.78
2022-11-18T03:41:52.936Z,6.70
2022-11-18T03:44:28.904Z,8.98
2022-11-18T03:47:03.528Z,8.80
2022-11-18T03:49:38.367Z,7.38
2022-11-18T03:52:12.092Z,10.50
2022-11-18T03:54:42.829Z,5.95
2022-11-18T03:57:16.129Z,8.73
2022-11-18T03:59:48.882Z,6.70
2022-11-18T04:02:21.781Z,10.00
2022-11-18T04:04:53.225Z,9.18
2022-11-18T04:07:26.045Z,9.70
2022-11-18T04:09:59.794Z,11.52
2022-11-18T04:12:32.862Z,9.05
2022-11-18T04:15:01.372Z,6.95
2022-11-18T04:17:31.566Z,9.83
2022-11-18T04:19:59.646Z,8.63
2022-11-18T04:22:28.080Z,7.18
2022-11-18T04:24:56.096Z,9.02
2022-11-18T04:27:24.439Z,9.70
2022-11-18T04:29:52.609Z,7.20
2022-11-18T04:32:20.995Z,8.67
2022-11-18T04:34:50.637Z,7.50
2022-11-18T04:37:19.177Z,8.75
2022-11-18T04:39:47.183Z,6.43
2022-11-18T04:42:15.839Z,7.57
2022-11-18T04:44:44.026Z,8.02
2022-11-18T04:47:12.369Z,8.48
2022-11-18T04:49:40.565Z,6.47
2022-11-18T04:52:10.450Z,9.47
2022-11-18T04:54:38.529Z,5.78
2022-11-18T04:57:07.023Z,8.77
2022-11-18T04:59:35.251Z,5.57
2022-11-18T05:02:03.919Z,6.27
2022-11-18T05:04:34.785Z,7.33
2022-11-18T05:07:05.158Z,6.40
2022-11-18T05:09:34.724Z,4.75
2022-11-18T05:12:22.725Z,5.00
2022-11-18T05:14:51.264Z,5.28
2022-11-18T05:17:20.259Z,6.28
2022-11-18T05:19:48.360Z,5.97
2022-11-18T05:22:16.720Z,7.68
2022-11-18T05:24:46.310Z,6.05
2022-11-18T05:27:15.319Z,5.43
2022-11-18T05:29:43.485Z,7.68
2022-11-18T05:32:12.075Z,6.53
2022-11-18T05:34:43.949Z,6.80
2022-11-18T05:37:13.044Z,7.50
2022-11-18T05:39:41.389Z,6.85
2022-11-18T05:42:28.814Z,9.10
2022-11-18T05:44:58.655Z,6.55
2022-11-18T05:47:50.130Z,7.97
2022-11-18T05:50:21.291Z,9.02
2022-11-18T05:52:50.010Z,7.32
2022-11-18T05:55:21.036Z,6.05
2022-11-18T05:57:53.687Z,7.55
2022-11-18T06:02:52.736Z,15.65
2022-11-18T06:05:23.162Z,7.30
2022-11-18T06:07:51.564Z,5.70
2022-11-18T06:10:24.866Z,6.20
2022-11-18T06:12:58.945Z,6.25
2022-11-18T06:15:29.653Z,5.78
2022-11-18T06:18:03.235Z,6.78
2022-11-18T06:20:31.630Z,5.30
2022-11-18T06:23:01.884Z,4.47
2022-11-18T06:25:30.769Z,7.72
2022-11-18T06:28:03.396Z,5.72
2022-11-18T06:30:31.893Z,3.70
2022-11-18T06:33:00.181Z,4.47
2022-11-18T06:35:28.281Z,4.68
2022-11-18T06:37:56.794Z,3.72
2022-11-18T06:40:24.828Z,4.32
2022-11-18T06:43:11.185Z,6.93
2022-11-18T06:46:07.686Z,6.72
2022-11-18T06:48:40.499Z,3.25
2022-11-18T06:51:09.104Z,3.03
2022-11-18T06:53:37.915Z,4.80
2022-11-18T06:56:07.313Z,3.65
2022-11-18T06:58:36.545Z,3.28
2022-11-18T07:01:12.793Z,5.85
2022-11-18T07:03:41.326Z,4.05
2022-11-18T07:06:10.363Z,5.07
2022-11-18T07:08:40.093Z,6.97
2022-11-18T07:13:43.351Z,4.70
2022-11-18T07:16:15.036Z,1.52
2022-11-18T07:18:44.938Z,2.13
2022-11-18T07:21:17.311Z,3.03
2022-11-18T07:23:45.859Z,1.70
2022-11-18T07:26:14.850Z,4.35
2022-11-18T07:28:43.287Z,1.30
2022-11-18T07:31:15.039Z,2.28
2022-11-18T07:33:45.947Z,3.40
2022-11-18T07:36:16.049Z,2.00
2022-11-18T07:38:44.689Z,2.38
2022-11-18T07:41:14.262Z,1.98
2022-11-18T07:43:45.086Z,3.28
2022-11-18T07:46:16.968Z,3.22
2022-11-18T07:48:47.221Z,3.30
2022-11-18T07:51:17.363Z,1.70
2022-11-18T07:53:46.196Z,3.60
2022-11-18T07:56:15.392Z,1.97
2022-11-18T08:01:16.795Z,2.55
2022-11-18T08:03:46.273Z,1.83
2022-11-18T08:06:16.286Z,1.80
2022-11-18T08:08:45.309Z,1.48
2022-11-18T08:11:20.593Z,3.28
2022-11-18T08:13:51.066Z,2.58
2022-11-18T08:16:22.362Z,2.72
2022-11-18T08:18:51.568Z,2.47
2022-11-18T08:21:22.375Z,2.28
2022-11-18T08:23:52.002Z,3.13
2022-11-18T08:26:20.829Z,3.20
2022-11-18T08:28:49.910Z,3.13
2022-11-18T08:31:21.670Z,3.00
2022-11-18T08:33:50.151Z,1.75
2022-11-18T08:36:20.081Z,3.08
2022-11-18T08:38:48.891Z,3.45
2022-11-18T08:41:19.534Z,3.13
2022-11-18T08:43:47.905Z,3.25
2022-11-18T08:46:16.293Z,2.33
2022-11-18T08:48:46.429Z,2.92
2022-11-18T08:51:16.042Z,4.88
2022-11-18T08:53:45.344Z,2.30
2022-11-18T08:56:17.242Z,0.90
2022-11-18T08:58:46.694Z,1.33
2022-11-18T09:01:15.275Z,2.05
2022-11-18T09:03:45.739Z,1.50
2022-11-18T09:06:19.422Z,2.33
2022-11-18T09:08:49.329Z,2.30
2022-11-18T09:11:21.166Z,1.95
2022-11-18T09:15:06.133Z,4.13
2022-11-18T09:16:43.699Z,2.05
2022-11-18T09:19:45.002Z,3.65
2022-11-18T09:22:03.314Z,4.85
2022-11-18T09:24:32.196Z,3.28
2022-11-18T09:27:02.224Z,1.77
2022-11-18T09:29:30.593Z,1.98
2022-11-18T09:32:01.912Z,2.58
2022-11-18T09:34:31.574Z,2.17
2022-11-18T09:37:00.217Z,2.90
2022-11-18T09:39:28.582Z,1.08
2022-11-18T09:42:13.023Z,2.50
2022-11-18T09:44:53.385Z,2.13
2022-11-18T09:47:28.709Z,1.40
2022-11-18T09:50:10.632Z,1.15
2022-11-18T09:53:02.095Z,1.55
2022-11-18T09:55:30.960Z,0.98
2022-11-18T09:58:00.528Z,3.15
2022-11-18T10:00:31.227Z,1.48
2022-11-18T10:03:04.948Z,1.13
2022-11-18T10:05:45.877Z,1.05
2022-11-18T10:08:23.165Z,2.47
2022-11-18T10:11:00.204Z,2.17
2022-11-18T10:13:43.450Z,4.07
2022-11-18T10:16:24.544Z,1.25
2022-11-18T10:19:00.576Z,5.07
2022-11-18T10:21:43.529Z,5.40
2022-11-18T10:24:18.050Z,2.13
2022-11-18T10:26:46.488Z,2.08
2022-11-18T10:29:14.924Z,2.97
2022-11-18T10:31:59.558Z,1.60
2022-11-18T10:34:31.755Z,1.48
2022-11-18T10:37:03.177Z,2.35
2022-11-18T10:39:31.603Z,1.27
2022-11-18T10:42:03.060Z,1.15
2022-11-18T10:44:40.067Z,5.43
2022-11-18T10:47:24.143Z,1.25
2022-11-18T10:49:53.452Z,1.02
2022-11-18T10:52:23.568Z,3.65
2022-11-18T10:55:22.290Z,1.45
2022-11-18T10:57:53.737Z,1.93
2022-11-18T11:00:53.706Z,0.85
2022-11-18T11:03:27.814Z,3.50
2022-11-18T11:06:39.588Z,2.45
2022-11-18T11:09:11.610Z,3.53
2022-11-18T11:11:43.782Z,1.60
2022-11-18T11:14:21.344Z,3.08
2022-11-18T11:16:57.909Z,4.95
2022-11-18T11:19:32.232Z,2.92
2022-11-18T11:22:00.935Z,2.65
2022-11-18T11:24:31.133Z,5.65
2022-11-18T11:30:16.572Z,2.63
2022-11-18T11:33:21.809Z,2.20
2022-11-18T11:35:58.983Z,5.15
2022-11-18T11:38:37.047Z,2.03
2022-11-18T11:41:17.582Z,5.05
2022-11-18T11:43:56.087Z,4.63
2022-11-18T11:46:42.417Z,4.10
2022-11-18T11:49:19.767Z,6.78
2022-11-18T11:51:52.995Z,2.70
2022-11-18T11:54:31.915Z,2.65
2022-11-18T11:57:06.316Z,3.05
2022-11-18T11:59:46.279Z,2.75
2022-11-18T12:02:39.877Z,6.30
2022-11-18T12:05:19.309Z,7.97
2022-11-18T12:07:52.810Z,7.72
2022-11-18T12:10:31.866Z,1.83
2022-11-18T12:13:17.197Z,3.13
2022-11-18T12:16:01.723Z,1.55
2022-11-18T12:18:37.151Z,5.15
2022-11-18T12:21:05.916Z,4.00
2022-11-18T12:23:35.016Z,3.67
2022-11-18T12:28:37.783Z,4.28
2022-11-18T12:31:33.420Z,5.43
2022-11-18T12:34:06.195Z,4.22
2022-11-18T12:36:38.637Z,2.63
2022-11-18T12:39:37.873Z,5.90
2022-11-18T12:44:55.154Z,13.27
2022-11-18T12:47:57.876Z,5.93
2022-11-18T12:50:49.776Z,6.57
2022-11-18T12:53:36.638Z,6.30
2022-11-18T12:56:21.620Z,4.65
2022-11-18T12:58:51.764Z,7.05
2022-11-18T13:01:28.252Z,7.85
2022-11-18T13:04:08.641Z,3.95
2022-11-18T13:06:40.142Z,3.42
2022-11-18T13:09:18.210Z,4.18
2022-11-18T13:11:52.038Z,8.18
2022-11-18T13:14:44.257Z,3.42
2022-11-18T13:17:46.952Z,3.58
2022-11-18T13:20:23.866Z,3.55
2022-11-18T13:23:10.991Z,4.85
2022-11-18T13:25:39.948Z,4.95
2022-11-18T13:28:20.324Z,3.33
2022-11-18T13:30:55.495Z,4.80
2022-11-18T13:33:25.359Z,2.17
2022-11-18T13:35:53.991Z,0.93
2022-11-18T13:38:28.490Z,1.67
2022-11-18T13:41:08.226Z,2.67
2022-11-18T13:43:36.689Z,3.95
2022-11-18T13:46:08.158Z,3.67
2022-11-18T13:48:41.925Z,8.00
2022-11-18T13:51:10.781Z,2.50
2022-11-18T13:53:40.465Z,1.42
2022-11-18T13:56:19.340Z,1.38
2022-11-18T13:59:16.317Z,2.45
2022-11-18T14:01:47.299Z,2.95
2022-11-18T14:04:22.870Z,1.55
2022-11-18T14:06:51.748Z,1.50
2022-11-18T14:09:24.843Z,2.25
2022-11-18T14:12:02.961Z,1.73
2022-11-18T14:14:33.885Z,2.05
2022-11-18T14:17:16.461Z,1.63
2022-11-18T14:19:46.779Z,4.07
2022-11-18T14:22:17.707Z,3.38
2022-11-18T14:24:56.006Z,12.40
2022-11-18T14:27:37.638Z,5.47
2022-11-18T14:30:31.252Z,7.63
2022-11-18T14:33:24.396Z,5.18
2022-11-18T14:35:58.296Z,4.47
2022-11-18T14:38:51.981Z,3.80
2022-11-18T14:41:44.689Z,10.57
2022-11-18T14:44:14.700Z,11.43
2022-11-18T14:46:45.847Z,2.97
2022-11-18T14:49:17.350Z,2.80
2022-11-18T14:51:47.419Z,5.10
2022-11-18T14:54:23.788Z,4.50
2022-11-18T14:56:58.052Z,6.28
2022-11-18T14:59:28.562Z,5.72
2022-11-18T15:01:59.001Z,3.25
2022-11-18T15:04:27.877Z,5.03
2022-11-18T15:06:57.419Z,5.07
2022-11-18T15:09:28.631Z,7.20
2022-11-18T15:11:59.070Z,4.93
2022-11-18T15:14:27.971Z,2.88
2022-11-18T15:16:56.038Z,1.67
2022-11-18T15:19:24.447Z,3.95
2022-11-18T15:21:52.693Z,4.57
2022-11-18T15:24:22.602Z,7.00
2022-11-18T15:26:50.898Z,3.45
2022-11-18T15:29:20.903Z,1.98
2022-11-18T15:31:49.652Z,4.32
2022-11-18T15:34:20.436Z,7.60
2022-11-18T15:36:49.352Z,11.15
2022-11-18T15:39:17.887Z,20.02
2022-11-18T15:41:47.793Z,16.33
2022-11-18T15:44:16.940Z,14.95
2022-11-18T15:46:49.123Z,9.70
2022-11-18T15:49:18.839Z,11.35
2022-11-18T15:54:15.430Z,9.55
2022-11-18T15:56:43.571Z,9.32
2022-11-18T15:59:14.546Z,8.63
2022-11-18T16:01:44.133Z,5.53
2022-11-18T16:04:14.450Z,8.95
2022-11-18T16:06:44.338Z,4.70
2022-11-18T16:09:15.767Z,5.13
2022-11-18T16:12:02.086Z,8.05
2022-11-18T16:14:31.812Z,6.85
2022-11-18T16:19:33.627Z,9.38
2022-11-18T16:22:01.841Z,10.80
2022-11-18T16:24:31.004Z,14.70
2022-11-18T16:26:59.844Z,16.52
2022-11-18T16:29:28.240Z,15.70
2022-11-18T16:31:57.818Z,23.20
2022-11-18T16:34:27.905Z,19.60
2022-11-18T16:36:57.802Z,13.20
2022-11-18T16:39:27.589Z,23.50
2022-11-18T16:42:02.091Z,11.98
2022-11-18T16:44:35.351Z,10.85
2022-11-18T16:47:12.376Z,9.87
2022-11-18T16:49:43.119Z,6.97
2022-11-18T16:52:11.703Z,9.03
2022-11-18T16:54:45.176Z,10.90
2022-11-18T16:57:14.484Z,10.90
2022-11-18T16:59:42.871Z,9.73
2022-11-18T17:02:14.055Z,11.13
2022-11-18T17:04:42.951Z,9.25
2022-11-18T17:07:11.178Z,9.27
2022-11-18T17:09:40.151Z,6.38
2022-11-18T17:12:08.952Z,6.45
2022-11-18T17:14:38.623Z,11.18
2022-11-18T17:19:37.239Z,8.52
2022-11-18T17:22:05.333Z,7.00
2022-11-18T17:24:34.089Z,10.55
2022-11-18T17:27:02.536Z,9.55
2022-11-18T17:29:32.928Z,12.98
2022-11-18T17:32:01.451Z,10.60
2022-11-18T17:34:32.285Z,9.77
2022-11-18T17:37:06.832Z,9.55
2022-11-18T17:39:35.891Z,10.95
2022-11-18T17:42:18.238Z,9.47
2022-11-18T17:44:47.196Z,8.40
2022-11-18T17:47:15.335Z,6.53
2022-11-18T17:49:43.874Z,10.43
2022-11-18T17:52:13.372Z,10.70
2022-11-18T17:54:41.760Z,9.75
2022-11-18T17:57:09.959Z,9.35
2022-11-18T17:59:38.898Z,11.93
2022-11-18T18:02:14.624Z,14.68
2022-11-18T18:04:43.141Z,9.75
2022-11-18T18:07:11.230Z,15.77
2022-11-18T18:09:41.097Z,16.70
2022-11-18T18:12:23.359Z,13.60
2022-11-18T18:14:52.254Z,13.73
2022-11-18T18:17:20.350Z,20.23
2022-11-18T18:19:48.719Z,23.23
2022-11-18T18:22:16.975Z,26.38
2022-11-18T18:24:46.707Z,27.80
2022-11-18T18:29:43.529Z,30.87
2022-11-18T18:32:11.612Z,24.40
2022-11-18T18:34:39.988Z,16.60
2022-11-18T18:37:09.384Z,8.38
2022-11-18T18:39:37.922Z,10.35
2022-11-18T18:42:07.950Z,9.07
2022-11-18T18:44:54.449Z,7.63
2022-11-18T18:47:22.528Z,7.85
2022-11-18T18:49:51.127Z,8.35
2022-11-18T18:52:19.286Z,9.98
2022-11-18T18:54:47.675Z,9.23
2022-11-18T18:57:17.139Z,14.55
2022-11-18T18:59:48.763Z,19.27
2022-11-18T19:02:16.928Z,11.52
2022-11-18T19:04:46.653Z,13.95
2022-11-18T19:07:16.964Z,19.30
2022-11-18T19:09:48.119Z,12.40
2022-11-18T19:12:34.434Z,15.18
2022-11-18T19:15:02.899Z,14.88
2022-11-18T19:17:32.603Z,16.58
2022-11-18T19:20:18.622Z,7.38
2022-11-18T19:22:46.726Z,5.22
2022-11-18T19:25:15.238Z,5.97
2022-11-18T19:27:44.952Z,6.55
2022-11-18T19:30:13.961Z,6.18
2022-11-18T19:32:42.939Z,6.15
2022-11-18T19:35:11.767Z,6.28
2022-11-18T19:37:41.047Z,8.10
2022-11-18T19:40:13.377Z,12.23
2022-11-18T19:42:42.732Z,14.38
2022-11-18T19:45:13.019Z,11.35
2022-11-18T19:47:41.436Z,18.15
2022-11-18T19:50:10.903Z,14.63
2022-11-18T19:52:39.032Z,40.15
2022-11-18T19:55:12.811Z,14.33
2022-11-18T19:57:40.874Z,26.30
2022-11-18T20:00:11.106Z,14.98
2022-11-18T20:02:41.614Z,15.88
2022-11-18T20:05:27.541Z,10.75
2022-11-18T20:07:56.819Z,10.43
2022-11-18T20:10:25.451Z,10.90
2022-11-18T20:12:53.818Z,13.30
2022-11-18T20:15:22.505Z,10.90
2022-11-18T20:17:51.995Z,11.48
2022-11-18T20:20:20.648Z,9.20
2022-11-18T20:22:48.834Z,10.32
2022-11-18T20:25:19.713Z,10.83
2022-11-18T20:27:48.028Z,11.27
2022-11-18T20:30:18.472Z,11.30
2022-11-18T20:32:46.824Z,8.82
2022-11-18T20:35:17.022Z,8.20
2022-11-18T20:37:45.246Z,8.38
2022-11-18T20:40:13.870Z,10.97
2022-11-18T20:43:00.290Z,7.75
2022-11-18T20:45:28.717Z,15.57
2022-11-18T20:47:56.802Z,12.05
2022-11-18T20:50:30.659Z,7.97
2022-11-18T20:52:59.769Z,7.80
2022-11-18T20:55:28.425Z,7.03
2022-11-18T20:58:01.522Z,5.80
2022-11-18T21:00:29.899Z,8.10
2022-11-18T21:02:58.364Z,6.35
2022-11-18T21:05:31.330Z,6.18
2022-11-18T21:07:59.709Z,6.53
2022-11-18T21:10:28.041Z,6.60
2022-11-18T21:13:13.882Z,17.30
2022-11-18T21:15:43.348Z,18.63
2022-11-18T21:18:13.765Z,19.02
2022-11-18T21:21:01.447Z,19.10
2022-11-18T21:23:29.527Z,18.75
2022-11-18T21:25:58.052Z,17.30
2022-11-18T21:28:28.416Z,18.15
2022-11-18T21:30:57.145Z,18.67
2022-11-18T21:33:25.319Z,18.53
2022-11-18T21:35:55.195Z,23.23
2022-11-18T21:38:23.867Z,15.60
2022-11-18T21:40:52.385Z,17.58
2022-11-18T21:43:32.806Z,16.90
2022-11-18T21:46:10.657Z,19.73
2022-11-18T21:48:40.464Z,14.73
2022-11-18T21:51:12.875Z,18.13
2022-11-18T21:53:41.127Z,18.00
2022-11-18T21:56:12.476Z,18.33
2022-11-18T21:58:40.658Z,17.65
2022-11-18T22:01:11.142Z,17.27
2022-11-18T22:03:41.271Z,19.45
2022-11-18T22:06:13.526Z,16.40
2022-11-18T22:08:42.396Z,18.02
2022-11-18T22:11:12.859Z,13.43
2022-11-18T22:13:41.739Z,16.17
2022-11-18T22:16:13.083Z,15.95
2022-11-18T22:18:43.245Z,19.75
2022-11-18T22:21:14.921Z,18.10
2022-11-18T22:23:43.821Z,14.00
2022-11-18T22:26:14.287Z,15.85
2022-11-18T22:28:42.750Z,14.68
2022-11-18T22:31:14.183Z,14.95
2022-11-18T22:33:42.964Z,13.43
2022-11-18T22:36:15.143Z,11.52
2022-11-18T22:38:44.585Z,14.68
2022-11-18T22:41:34.716Z,12.15
2022-11-18T22:44:07.036Z,12.65
2022-11-18T22:46:36.882Z,12.27
2022-11-18T22:49:05.573Z,14.07
2022-11-18T22:51:35.921Z,11.75
2022-11-18T22:56:54.814Z,9.07
2022-11-18T22:59:23.415Z,12.95
2022-11-18T23:01:52.326Z,9.90
2022-11-18T23:04:20.905Z,11.00
2022-11-18T23:06:51.133Z,9.32
2022-11-18T23:09:19.528Z,12.52
2022-11-18T23:12:05.860Z,10.38
2022-11-18T23:14:34.177Z,16.83
2022-11-18T23:17:02.605Z,14.83
2022-11-18T23:19:30.953Z,20.05
2022-11-18T23:22:02.244Z,13.80
2022-11-18T23:26:58.644Z,14.77
2022-11-18T23:29:26.802Z,12.00
2022-11-18T23:31:55.677Z,10.47
2022-11-18T23:34:24.250Z,13.77
2022-11-18T23:36:52.672Z,9.45
2022-11-18T23:39:22.489Z,9.63
2022-11-18T23:41:51.171Z,10.35
2022-11-18T23:44:39.253Z,15.50
2022-11-18T23:47:07.841Z,8.00
2022-11-18T23:49:37.094Z,8.75
2022-11-18T23:52:05.854Z,7.97
2022-11-18T23:54:35.326Z,8.73
2022-11-18T23:57:05.390Z,11.73
2022-11-18T23:59:33.766Z,8.73
